NCBI
dbSNP

dbVar ClinVar GaP PubMed Nucleotide Protein
Search small variations in dbSNP or large structural variations in dbVar
transparent GIF
Spacer gif
Have a question about dbSNP? Try searching the SNP FAQ Archive!

Spacer gif
View SNP Submission Batch
Submitter Handle:ILLUMINA
Submitter Batch ID:HumanOmniExpressExome8v1-1_B
Submitter Method ID:ILLUMINA-CUSTOMERIZED-CHIP
Citation:not supplied
Comment:Illumina, Inc. Descriptor File Name,HumanOmniExpressExome8v1-1_B.bpm Assay Format,Infinium HD Super Date Manufactured,2/6/2013 Loci Count ,958178
Batch Total SubSNP(ss) Count:957856


all, sort by
SubSNP(ss) Submitter
SNP_ID
SNP
Allele
Samplesize RefSNP(rs) ss2rs
Orien
Chr ChrPos Contig
Accession
Contig
Pos
ss1751859105 OmniExpressExome-8v1-1_B_rs7535945-131_B_R_1891351900 A/G 2 rs7535945 0 1 9943171 NT_032977.10 9357183
ss1751859106 OmniExpressExome-8v1-1_B_rs1234694-131_T_F_1893186642 A/G 2 rs1234694 0 1 9943262 NT_032977.10 9357274
ss1751859097 OmniExpressExome-8v1-1_B_rs6678176-131_B_F_1891307697 C/T 2 rs6678176 0 1 99535271 NT_032977.10 98949283
ss1751859098 OmniExpressExome-8v1-1_B_rs12069019-131_T_F_1891274448 A/G 2 rs12069019 0 1 99539921 NT_032977.10 98953933
ss1751859099 OmniExpressExome-8v1-1_B_rs6686057-131_B_R_1891306866 A/G 2 rs6686057 0 1 99540561 NT_032977.10 98954573
ss1751859100 OmniExpressExome-8v1-1_B_rs11806162-131_B_F_1895093539 C/T 2 rs11806162 0 1 99550045 NT_032977.10 98964057
ss1751859101 OmniExpressExome-8v1-1_B_rs11807493-131_B_R_2031162737 A/C 2 rs11807493 0 1 99553031 NT_032977.10 98967043
ss1751859102 OmniExpressExome-8v1-1_B_rs1339866-131_T_R_1893992273 A/C 2 rs1339866 1 1 99553713 NT_032977.10 98967725
ss1751859103 OmniExpressExome-8v1-1_B_rs11166274-131_T_F_1894952422 A/G 2 rs11166274 0 1 99560979 NT_032977.10 98974991
ss1751859104 OmniExpressExome-8v1-1_B_rs17120680-131_B_F_1894849537 C/T 2 rs17120680 0 1 99566018 NT_032977.10 98980030
ss1751859107 OmniExpressExome-8v1-1_B_rs1000792-131_B_R_1889652422 A/G 2 rs1000792 0 1 99574544 NT_032977.10 98988556
ss1751859108 OmniExpressExome-8v1-1_B_rs952519-131_B_F_1895125530 A/G 2 rs952519 1 1 99574972 NT_032977.10 98988984
ss1751859109 OmniExpressExome-8v1-1_B_rs1339856-131_B_F_1891398841 A/G 2 rs1339856 1 1 99578233 NT_032977.10 98992245
ss1751859110 OmniExpressExome-8v1-1_B_rs6702619-131_T_R_1891357171 G/T 2 rs6702619 0 1 99580690 NT_032977.10 98994702
ss1751859111 OmniExpressExome-8v1-1_B_exm-rs7543130-131_T_F_1990493962 A/C 2 rs7543130 0 1 99584229 NT_032977.10 98998241
ss1751859112 OmniExpressExome-8v1-1_B_rs7543130-131_T_F_1885470051 A/C 2 rs7543130 0 1 99584229 NT_032977.10 98998241
ss1751859113 OmniExpressExome-8v1-1_B_rs17120729-131_B_R_1895059997 A/G 2 rs17120729 0 1 99586024 NT_032977.10 99000036
ss1751859114 OmniExpressExome-8v1-1_B_rs2893418-131_T_R_1894005099 A/G 2 rs2893418 1 1 99586112 NT_032977.10 99000124
ss1751859115 OmniExpressExome-8v1-1_B_rs12136809-131_T_F_1891275119 A/G 2 rs12136809 0 1 99586244 NT_032977.10 99000256
ss1751859116 OmniExpressExome-8v1-1_B_rs6702910-131_T_R_1895025263 C/T 2 rs6702910 0 1 99593479 NT_032977.10 99007491
ss1751859117 OmniExpressExome-8v1-1_B_rs10875238-131_T_R_1893963139 C/T 2 rs10875238 0 1 99594044 NT_032977.10 99008056
ss1751859118 OmniExpressExome-8v1-1_B_rs6672117-131_B_R_1895000294 A/G 2 rs6672117 0 1 99596861 NT_032977.10 99010873
ss1751859119 OmniExpressExome-8v1-1_B_rs2392039-131_T_R_1895051068 A/G 2 rs2392039 1 1 99597526 NT_032977.10 99011538
ss1751859120 OmniExpressExome-8v1-1_B_rs7518025-131_T_R_1894809444 C/T 2 rs7518025 0 1 99600959 NT_032977.10 99014971
ss1751859121 OmniExpressExome-8v1-1_B_rs4908329-131_B_F_1885496818 C/T 2 rs4908329 0 1 99602346 NT_032977.10 99016358
ss1751859122 OmniExpressExome-8v1-1_B_rs12025301-131_T_F_1891398711 A/G 2 rs12025301 0 1 99604245 NT_032977.10 99018257
ss1751859123 OmniExpressExome-8v1-1_B_rs7554246-131_B_F_1895090774 C/T 2 rs7554246 0 1 99610139 NT_032977.10 99024151
ss1751859124 OmniExpressExome-8v1-1_B_rs835015-131_B_R_1895000293 C/T 2 rs835015 1 1 99612653 NT_032977.10 99026665
ss1751859125 OmniExpressExome-8v1-1_B_rs6689789-131_T_R_1894860281 C/T 2 rs6689789 0 1 99614204 NT_032977.10 99028216
ss1751859126 OmniExpressExome-8v1-1_B_rs12729121-131_B_F_1895108664 G/T 2 rs12729121 0 1 99615561 NT_032977.10 99029573
30 of 957856 subsnp's starting at ss1751859105. ss# starting at ss